Wolke Sonne

Wetter Ammerndorf

Gehe zu: Roßtal

Tageswerte vom Sonntag, 20.03.2022

Optionen

Tag:
Erweitert:

Alle Werte vom Sonntag, 20.03.2022

Einen Moment bitte, die Daten werden aufbereitet...

UhrzeitTemperaturBoden 10cmBoden 20cmFeuchteLuftdruckNiederschlagEvapotranspirationWindWindböenWindrichtungSolarstrahlungUV-IndexSonne?Uhrzeit
Diagramm IconDiagramm IconDiagramm IconDiagramm IconDiagramm IconDiagramm IconDiagramm IconDiagramm IconDiagramm IconDiagramm IconDiagramm IconDiagramm IconDiagramm Icon
00:002,7 °C 4,4 °C 5,0 °C 62 % 1032,9 hPa 0,0 mm - 1,4 km/h 9,7 km/h NO 0,0 W/qm 0,0 nein 00:00
00:052,4 °C 4,4 °C 5,0 °C 64 % 1032,8 hPa 0,0 mm 0,0 mm 1,4 km/h 9,7 km/h NNO 0,0 W/qm 0,0 nein 00:05
00:102,2 °C 4,4 °C 5,0 °C 64 % 1032,8 hPa 0,0 mm 0,0 mm 1,4 km/h 9,7 km/h NNO 0,0 W/qm 0,0 nein 00:10
00:152,1 °C 4,4 °C 5,0 °C 65 % 1032,7 hPa 0,0 mm - 1,4 km/h 6,5 km/h NNO 0,0 W/qm 0,0 nein 00:15
00:202,1 °C 4,4 °C 5,0 °C 65 % 1032,7 hPa 0,0 mm - 3,2 km/h 6,5 km/h N 0,0 W/qm 0,0 nein 00:20
00:251,8 °C 4,4 °C 5,0 °C 67 % 1032,7 hPa 0,0 mm - 3,2 km/h 6,5 km/h NNO 0,0 W/qm 0,0 nein 00:25
00:301,7 °C 4,4 °C 5,0 °C 67 % 1032,6 hPa 0,0 mm - 1,4 km/h 6,5 km/h NNO 0,0 W/qm 0,0 nein 00:30
00:351,7 °C 4,4 °C 5,0 °C 68 % 1032,6 hPa 0,0 mm - 1,4 km/h 6,5 km/h NNO 0,0 W/qm 0,0 nein 00:35
00:401,8 °C 4,4 °C 5,0 °C 66 % 1032,7 hPa 0,0 mm - 1,4 km/h 6,5 km/h NNO 0,0 W/qm 0,0 nein 00:40
00:451,6 °C 4,4 °C 5,0 °C 68 % 1032,6 hPa 0,0 mm - 1,4 km/h 6,5 km/h NNO 0,0 W/qm 0,0 nein 00:45
00:501,4 °C 4,4 °C 5,0 °C 70 % 1032,6 hPa 0,0 mm - 0,0 km/h 6,5 km/h NNO 0,0 W/qm 0,0 nein 00:50
00:551,2 °C 4,4 °C 5,0 °C 71 % 1032,7 hPa 0,0 mm - 0,0 km/h 6,5 km/h NNO 0,0 W/qm 0,0 nein 00:55
01:001,2 °C 4,4 °C 5,0 °C 71 % 1032,7 hPa 0,0 mm - 0,0 km/h 6,5 km/h NNO 0,0 W/qm 0,0 nein 01:00
01:051,8 °C 4,4 °C 5,0 °C 67 % 1032,6 hPa 0,0 mm 0,0 mm 1,4 km/h 4,7 km/h NNO 0,0 W/qm 0,0 nein 01:05
01:101,9 °C 4,4 °C 5,0 °C 67 % 1032,6 hPa 0,0 mm 0,0 mm 1,4 km/h 6,5 km/h NNO 0,0 W/qm 0,0 nein 01:10
01:151,9 °C 4,4 °C 5,0 °C 67 % 1032,6 hPa 0,0 mm - 1,4 km/h 6,5 km/h NNO 0,0 W/qm 0,0 nein 01:15
01:201,9 °C 4,4 °C 5,0 °C 67 % 1032,6 hPa 0,0 mm - 0,0 km/h 6,5 km/h NNO 0,0 W/qm 0,0 nein 01:20
01:251,9 °C 4,4 °C 5,0 °C 67 % 1032,4 hPa 0,0 mm - 0,0 km/h 6,5 km/h NO 0,0 W/qm 0,0 nein 01:25
01:301,8 °C 4,4 °C 5,0 °C 68 % 1032,5 hPa 0,0 mm - 0,0 km/h 6,5 km/h NNO 0,0 W/qm 0,0 nein 01:30
01:351,8 °C 4,4 °C 5,0 °C 67 % 1032,4 hPa 0,0 mm - 0,0 km/h 6,5 km/h NNO 0,0 W/qm 0,0 nein 01:35
01:402,1 °C 4,4 °C 5,0 °C 67 % 1032,3 hPa 0,0 mm - 1,4 km/h 6,5 km/h ONO 0,0 W/qm 0,0 nein 01:40
01:452,1 °C 4,4 °C 5,0 °C 67 % 1032,4 hPa 0,0 mm - 1,4 km/h 7,9 km/h ONO 0,0 W/qm 0,0 nein 01:45
01:502,1 °C 4,4 °C 5,0 °C 66 % 1032,4 hPa 0,0 mm - 0,0 km/h 7,9 km/h ONO 0,0 W/qm 0,0 nein 01:50
01:551,9 °C 4,4 °C 5,0 °C 67 % 1032,4 hPa 0,0 mm - 0,0 km/h 7,9 km/h ONO 0,0 W/qm 0,0 nein 01:55
UhrzeitTemperaturBoden 10cmBoden 20cmFeuchteLuftdruckNiederschlagEvapotranspirationWindWindböenWindrichtungSolarstrahlungUV-IndexSonne?Uhrzeit
02:001,7 °C 4,4 °C 5,0 °C 68 % 1032,6 hPa 0,0 mm - 0,0 km/h 3,2 km/h ONO 0,0 W/qm 0,0 nein 02:00
02:051,7 °C 4,4 °C 5,0 °C 68 % 1032,5 hPa 0,0 mm 0,0 mm 0,0 km/h 3,2 km/h S 0,0 W/qm 0,0 nein 02:05
02:101,8 °C 4,4 °C 5,0 °C 68 % 1032,5 hPa 0,0 mm 0,0 mm 0,0 km/h 6,5 km/h S 0,0 W/qm 0,0 nein 02:10
02:151,7 °C 4,4 °C 5,0 °C 68 % 1032,4 hPa 0,0 mm - 0,0 km/h 6,5 km/h W 0,0 W/qm 0,0 nein 02:15
02:201,6 °C 4,4 °C 5,0 °C 70 % 1032,4 hPa 0,0 mm - 0,0 km/h 6,5 km/h SSW 0,0 W/qm 0,0 nein 02:20
02:251,4 °C 4,4 °C 5,0 °C 70 % 1032,3 hPa 0,0 mm - 1,4 km/h 3,2 km/h NO 0,0 W/qm 0,0 nein 02:25
02:301,4 °C 4,4 °C 5,0 °C 71 % 1032,3 hPa 0,0 mm - 1,4 km/h 6,5 km/h S 0,0 W/qm 0,0 nein 02:30
02:351,3 °C 4,4 °C 5,0 °C 71 % 1032,3 hPa 0,0 mm - 0,0 km/h 6,5 km/h SSO 0,0 W/qm 0,0 nein 02:35
02:401,3 °C 4,4 °C 5,0 °C 71 % 1032,3 hPa 0,0 mm - 0,0 km/h 6,5 km/h SSO 0,0 W/qm 0,0 nein 02:40
02:451,7 °C 4,4 °C 5,0 °C 69 % 1032,3 hPa 0,0 mm - 0,0 km/h 3,2 km/h WSW 0,0 W/qm 0,0 nein 02:45
02:501,7 °C 4,4 °C 5,0 °C 69 % 1032,3 hPa 0,0 mm - 1,4 km/h 4,7 km/h SW 0,0 W/qm 0,0 nein 02:50
02:551,7 °C 4,4 °C 5,0 °C 69 % 1032,3 hPa 0,0 mm - 1,4 km/h 6,5 km/h SW 0,0 W/qm 0,0 nein 02:55
03:001,6 °C 4,4 °C 5,0 °C 69 % 1032,3 hPa 0,0 mm - 3,2 km/h 6,5 km/h SW 0,0 W/qm 0,0 nein 03:00
03:051,3 °C 4,4 °C 5,0 °C 70 % 1032,2 hPa 0,0 mm 0,0 mm 1,4 km/h 6,5 km/h SW 0,0 W/qm 0,0 nein 03:05
03:100,9 °C 4,4 °C 5,0 °C 72 % 1032,3 hPa 0,0 mm 0,0 mm 0,0 km/h 4,7 km/h NW 0,0 W/qm 0,0 nein 03:10
03:150,7 °C 4,4 °C 5,0 °C 73 % 1032,2 hPa 0,0 mm - 0,0 km/h 4,7 km/h OSO 0,0 W/qm 0,0 nein 03:15
03:200,9 °C 4,4 °C 5,0 °C 73 % 1032,2 hPa 0,0 mm - 0,0 km/h 3,2 km/h NNO 0,0 W/qm 0,0 nein 03:20
03:250,7 °C 4,4 °C 5,0 °C 73 % 1032,2 hPa 0,0 mm - 0,0 km/h 4,7 km/h NO 0,0 W/qm 0,0 nein 03:25
03:300,7 °C 4,4 °C 5,0 °C 75 % 1032,2 hPa 0,0 mm - 0,0 km/h 4,7 km/h NO 0,0 W/qm 0,0 nein 03:30
03:350,8 °C 4,4 °C 5,0 °C 74 % 1032,2 hPa 0,0 mm - 0,0 km/h 4,7 km/h WNW 0,0 W/qm 0,0 nein 03:35
03:401,1 °C 4,4 °C 5,0 °C 73 % 1032,1 hPa 0,0 mm - 1,4 km/h 4,7 km/h NNO 0,0 W/qm 0,0 nein 03:40
03:450,9 °C 4,4 °C 5,0 °C 73 % 1032,2 hPa 0,0 mm - 1,4 km/h 4,7 km/h NNW 0,0 W/qm 0,0 nein 03:45
03:501,1 °C 4,4 °C 5,0 °C 73 % 1032,3 hPa 0,0 mm - 0,0 km/h 4,7 km/h NNW 0,0 W/qm 0,0 nein 03:50
03:550,9 °C 4,4 °C 5,0 °C 73 % 1032,4 hPa 0,0 mm - 0,0 km/h 4,7 km/h NNW 0,0 W/qm 0,0 nein 03:55
UhrzeitTemperaturBoden 10cmBoden 20cmFeuchteLuftdruckNiederschlagEvapotranspirationWindWindböenWindrichtungSolarstrahlungUV-IndexSonne?Uhrzeit
04:000,9 °C 4,4 °C 5,0 °C 74 % 1032,4 hPa 0,0 mm - 0,0 km/h 3,2 km/h S 0,0 W/qm 0,0 nein 04:00
04:050,8 °C 4,4 °C 5,0 °C 75 % 1032,3 hPa 0,0 mm 0,0 mm 1,4 km/h 3,2 km/h O 0,0 W/qm 0,0 nein 04:05
04:100,6 °C 4,4 °C 5,0 °C 75 % 1032,4 hPa 0,0 mm 0,0 mm 0,0 km/h 4,7 km/h O 0,0 W/qm 0,0 nein 04:10
04:150,4 °C 4,4 °C 5,0 °C 76 % 1032,5 hPa 0,0 mm - 0,0 km/h 4,7 km/h SO 0,0 W/qm 0,0 nein 04:15
04:200,3 °C 4,4 °C 5,0 °C 77 % 1032,7 hPa 0,0 mm - 0,0 km/h 4,7 km/h SO 0,0 W/qm 0,0 nein 04:20
04:25-0,1 °C 3,9 °C 5,0 °C 78 % 1032,7 hPa 0,0 mm - 0,0 km/h 3,2 km/h SO 0,0 W/qm 0,0 nein 04:25
04:30-0,4 °C 3,9 °C 5,0 °C 79 % 1032,9 hPa 0,0 mm - 0,0 km/h 3,2 km/h SO 0,0 W/qm 0,0 nein 04:30
04:35-0,6 °C 3,9 °C 5,0 °C 80 % 1032,9 hPa 0,0 mm - 0,0 km/h 3,2 km/h SO 0,0 W/qm 0,0 nein 04:35
04:40-0,8 °C 3,9 °C 5,0 °C 80 % 1033,0 hPa 0,0 mm - 0,0 km/h 0,0 km/h SO 0,0 W/qm 0,0 nein 04:40
04:45-1,0 °C 3,9 °C 5,0 °C 81 % 1033,0 hPa 0,0 mm - 0,0 km/h 0,0 km/h SO 0,0 W/qm 0,0 nein 04:45
04:50-1,2 °C 3,9 °C 5,0 °C 82 % 1033,0 hPa 0,0 mm - 0,0 km/h 0,0 km/h SO 0,0 W/qm 0,0 nein 04:50
04:55-1,3 °C 3,9 °C 5,0 °C 82 % 1033,0 hPa 0,0 mm - 0,0 km/h 0,0 km/h SO 0,0 W/qm 0,0 nein 04:55
05:00-1,4 °C 3,9 °C 5,0 °C 83 % 1033,0 hPa 0,0 mm - 0,0 km/h 0,0 km/h SO 0,0 W/qm 0,0 nein 05:00
05:05-1,4 °C 3,9 °C 5,0 °C 84 % 1033,0 hPa 0,0 mm 0,0 mm 0,0 km/h 0,0 km/h SO 0,0 W/qm 0,0 nein 05:05
05:10-1,5 °C 3,9 °C 5,0 °C 84 % 1033,1 hPa 0,0 mm 0,0 mm 0,0 km/h 0,0 km/h SO 0,0 W/qm 0,0 nein 05:10
05:15-1,6 °C 3,9 °C 5,0 °C 84 % 1033,1 hPa 0,0 mm - 0,0 km/h 0,0 km/h SO 0,0 W/qm 0,0 nein 05:15
05:20-1,6 °C 3,9 °C 5,0 °C 84 % 1033,2 hPa 0,0 mm - 0,0 km/h 3,2 km/h SO 0,0 W/qm 0,0 nein 05:20
05:25-1,6 °C 3,9 °C 5,0 °C 84 % 1033,2 hPa 0,0 mm - 0,0 km/h 3,2 km/h SSW 0,0 W/qm 0,0 nein 05:25
05:30-1,7 °C 3,9 °C 5,0 °C 84 % 1033,2 hPa 0,0 mm - 0,0 km/h 3,2 km/h SSW 0,0 W/qm 0,0 nein 05:30
05:35-1,7 °C 3,9 °C 5,0 °C 84 % 1033,2 hPa 0,0 mm - 0,0 km/h 6,5 km/h SSW 0,0 W/qm 0,0 nein 05:35
05:40-1,7 °C 3,9 °C 5,0 °C 84 % 1033,2 hPa 0,0 mm - 0,0 km/h 6,5 km/h SSW 0,0 W/qm 0,0 nein 05:40
05:45-1,8 °C 3,9 °C 5,0 °C 84 % 1033,2 hPa 0,0 mm - 0,0 km/h 6,5 km/h SSW 0,0 W/qm 0,0 nein 05:45
05:50-1,6 °C 3,9 °C 5,0 °C 85 % 1033,3 hPa 0,0 mm - 1,4 km/h 4,7 km/h SSW 0,0 W/qm 0,0 nein 05:50
05:55-1,4 °C 3,9 °C 5,0 °C 84 % 1033,3 hPa 0,0 mm - 1,4 km/h 4,7 km/h SSW 0,0 W/qm 0,0 nein 05:55
UhrzeitTemperaturBoden 10cmBoden 20cmFeuchteLuftdruckNiederschlagEvapotranspirationWindWindböenWindrichtungSolarstrahlungUV-IndexSonne?Uhrzeit
06:00-1,2 °C 3,9 °C 5,0 °C 84 % 1033,2 hPa 0,0 mm - 1,4 km/h 6,5 km/h SSW 0,0 W/qm 0,0 nein 06:00
06:05-1,4 °C 3,9 °C 5,0 °C 83 % 1033,3 hPa 0,0 mm 0,0 mm 1,4 km/h 6,5 km/h SSW 0,0 W/qm 0,0 nein 06:05
06:10-1,5 °C 3,9 °C 5,0 °C 83 % 1033,2 hPa 0,0 mm 0,0 mm 0,0 km/h 6,5 km/h SSW 0,0 W/qm 0,0 nein 06:10
06:15-1,5 °C 3,9 °C 5,0 °C 84 % 1033,4 hPa 0,0 mm - 0,0 km/h 4,7 km/h SSW 5,0 W/qm 0,0 nein 06:15
06:20-1,6 °C 3,9 °C 5,0 °C 84 % 1033,4 hPa 0,0 mm - 0,0 km/h 3,2 km/h SSW 7,0 W/qm 0,0 nein 06:20
06:25-1,5 °C 3,9 °C 5,0 °C 85 % 1033,3 hPa 0,0 mm - 0,0 km/h 3,2 km/h SSW 9,0 W/qm 0,0 nein 06:25
06:30-0,8 °C 3,9 °C 5,0 °C 84 % 1033,4 hPa 0,0 mm - 0,0 km/h 3,2 km/h SSW 12,0 W/qm 0,0 nein 06:30
06:35-0,3 °C 3,9 °C 5,0 °C 83 % 1033,2 hPa 0,0 mm - 1,4 km/h 3,2 km/h SO 14,0 W/qm 0,0 nein 06:35
06:400,5 °C 3,9 °C 5,0 °C 81 % 1033,1 hPa 0,0 mm - 1,4 km/h 6,5 km/h SW 18,0 W/qm 0,0 nein 06:40
06:451,1 °C 3,9 °C 5,0 °C 78 % 1033,0 hPa 0,0 mm - 3,2 km/h 11,2 km/h SSW 23,0 W/qm 0,0 nein 06:45
06:501,3 °C 3,9 °C 5,0 °C 76 % 1033,0 hPa 0,0 mm - 1,4 km/h 11,2 km/h S 26,0 W/qm 0,0 nein 06:50
06:551,4 °C 3,9 °C 5,0 °C 75 % 1033,1 hPa 0,0 mm - 3,2 km/h 11,2 km/h SW 30,0 W/qm 0,0 nein 06:55
07:001,4 °C 3,9 °C 5,0 °C 75 % 1033,0 hPa 0,0 mm - 3,2 km/h 11,2 km/h N 33,0 W/qm 0,0 nein 07:00
07:051,6 °C 3,9 °C 5,0 °C 74 % 1033,1 hPa 0,0 mm 0,0 mm 1,4 km/h 11,2 km/h WSW 37,0 W/qm 0,0 nein 07:05
07:101,5 °C 3,9 °C 5,0 °C 74 % 1033,2 hPa 0,0 mm 0,0 mm 1,4 km/h 11,2 km/h SSO 42,0 W/qm 0,0 nein 07:10
07:151,6 °C 3,9 °C 4,4 °C 74 % 1033,3 hPa 0,0 mm - 1,4 km/h 6,5 km/h S 46,0 W/qm 0,0 nein 07:15
07:201,7 °C 3,9 °C 4,4 °C 74 % 1033,3 hPa 0,0 mm - 1,4 km/h 6,5 km/h SSW 49,0 W/qm 0,0 nein 07:20
07:251,7 °C 3,9 °C 4,4 °C 74 % 1033,4 hPa 0,0 mm - 3,2 km/h 7,9 km/h WSW 54,0 W/qm 0,0 nein 07:25
07:301,7 °C 3,9 °C 4,4 °C 74 % 1033,4 hPa 0,0 mm - 3,2 km/h 7,9 km/h S 60,0 W/qm 0,0 nein 07:30
07:351,8 °C 3,9 °C 4,4 °C 74 % 1033,5 hPa 0,0 mm - 3,2 km/h 7,9 km/h SW 63,0 W/qm 0,0 nein 07:35
07:402,0 °C 3,9 °C 4,4 °C 73 % 1033,5 hPa 0,0 mm - 3,2 km/h 7,9 km/h SSW 67,0 W/qm 0,0 nein 07:40
07:452,3 °C 3,9 °C 4,4 °C 73 % 1033,4 hPa 0,0 mm - 1,4 km/h 7,9 km/h SSO 70,0 W/qm 0,0 nein 07:45
07:502,5 °C 3,9 °C 4,4 °C 72 % 1033,5 hPa 0,0 mm - 1,4 km/h 7,9 km/h SSO 74,0 W/qm 0,0 nein 07:50
07:552,7 °C 3,9 °C 4,4 °C 71 % 1033,6 hPa 0,0 mm - 1,4 km/h 7,9 km/h SSO 77,0 W/qm 0,0 nein 07:55
UhrzeitTemperaturBoden 10cmBoden 20cmFeuchteLuftdruckNiederschlagEvapotranspirationWindWindböenWindrichtungSolarstrahlungUV-IndexSonne?Uhrzeit
08:002,8 °C 3,9 °C 4,4 °C 70 % 1033,6 hPa 0,0 mm - 1,4 km/h 6,5 km/h O 79,0 W/qm 0,0 nein 08:00
08:053,1 °C 3,9 °C 4,4 °C 70 % 1033,4 hPa 0,0 mm 0,0 mm 1,4 km/h 7,9 km/h SSO 83,0 W/qm 0,0 nein 08:05
08:103,2 °C 3,9 °C 4,4 °C 69 % 1033,5 hPa 0,0 mm 0,0 mm 1,4 km/h 7,9 km/h S 86,0 W/qm 0,0 nein 08:10
08:153,4 °C 3,9 °C 4,4 °C 70 % 1033,5 hPa 0,0 mm - 1,4 km/h 7,9 km/h SSO 90,0 W/qm 0,0 nein 08:15
08:203,6 °C 3,9 °C 4,4 °C 69 % 1033,4 hPa 0,0 mm - 1,4 km/h 7,9 km/h S 223,0 W/qm 0,0 nein 08:20
08:253,8 °C 3,9 °C 4,4 °C 68 % 1033,4 hPa 0,0 mm - 1,4 km/h 7,9 km/h SW 253,0 W/qm 0,5 ja 08:25
08:304,0 °C 3,9 °C 4,4 °C 67 % 1033,6 hPa 0,0 mm - 3,2 km/h 7,9 km/h SO 267,0 W/qm 0,5 ja 08:30
08:354,2 °C 3,9 °C 4,4 °C 66 % 1033,4 hPa 0,0 mm - 3,2 km/h 11,2 km/h O 279,0 W/qm 0,5 ja 08:35
08:404,5 °C 3,9 °C 4,4 °C 66 % 1033,5 hPa 0,0 mm - 3,2 km/h 11,2 km/h SSO 292,0 W/qm 0,6 ja 08:40
08:454,8 °C 3,9 °C 4,4 °C 65 % 1033,5 hPa 0,0 mm - 3,2 km/h 11,2 km/h SSO 306,0 W/qm 0,6 ja 08:45
08:505,1 °C 3,9 °C 4,4 °C 64 % 1033,4 hPa 0,0 mm - 4,7 km/h 11,2 km/h OSO 320,0 W/qm 0,7 ja 08:50
08:555,4 °C 3,9 °C 4,4 °C 61 % 1033,5 hPa 0,0 mm - 6,5 km/h 14,4 km/h SO 334,0 W/qm 0,7 ja 08:55
09:005,6 °C 3,9 °C 4,4 °C 60 % 1033,3 hPa 0,0 mm - 6,5 km/h 17,6 km/h SSO 348,0 W/qm 0,7 ja 09:00
09:055,9 °C 3,9 °C 4,4 °C 59 % 1033,3 hPa 0,0 mm 0,1 mm 7,9 km/h 17,6 km/h NNO 362,0 W/qm 0,8 ja 09:05
09:106,1 °C 3,9 °C 4,4 °C 59 % 1033,3 hPa 0,0 mm 0,1 mm 7,9 km/h 17,6 km/h SSO 374,0 W/qm 0,8 ja 09:10
09:156,3 °C 3,9 °C 4,4 °C 58 % 1033,3 hPa 0,0 mm - 7,9 km/h 22,7 km/h SSO 381,0 W/qm 0,9 ja 09:15
09:206,3 °C 3,9 °C 4,4 °C 57 % 1033,4 hPa 0,0 mm - 6,5 km/h 22,7 km/h S 397,0 W/qm 0,9 ja 09:20
09:256,4 °C 3,9 °C 4,4 °C 57 % 1033,3 hPa 0,0 mm - 6,5 km/h 22,7 km/h ONO 410,0 W/qm 1,0 ja 09:25
09:306,8 °C 3,9 °C 4,4 °C 56 % 1033,2 hPa 0,0 mm - 6,5 km/h 16,2 km/h ONO 422,0 W/qm 1,0 ja 09:30
09:356,9 °C 3,9 °C 4,4 °C 55 % 1033,2 hPa 0,0 mm - 7,9 km/h 19,4 km/h S 434,0 W/qm 1,0 ja 09:35
09:407,2 °C 3,9 °C 4,4 °C 55 % 1033,2 hPa 0,0 mm - 7,9 km/h 19,4 km/h SO 445,0 W/qm 1,1 ja 09:40
09:457,6 °C 3,9 °C 4,4 °C 53 % 1033,2 hPa 0,0 mm - 7,9 km/h 20,9 km/h OSO 454,0 W/qm 1,1 ja 09:45
09:507,6 °C 3,9 °C 4,4 °C 53 % 1033,1 hPa 0,0 mm - 7,9 km/h 20,9 km/h S 464,0 W/qm 1,2 ja 09:50
09:557,7 °C 3,9 °C 4,4 °C 52 % 1033,2 hPa 0,0 mm - 6,5 km/h 20,9 km/h O 475,0 W/qm 1,2 ja 09:55
UhrzeitTemperaturBoden 10cmBoden 20cmFeuchteLuftdruckNiederschlagEvapotranspirationWindWindböenWindrichtungSolarstrahlungUV-IndexSonne?Uhrzeit
10:008,1 °C 3,9 °C 4,4 °C 53 % 1033,0 hPa 0,0 mm - 6,5 km/h 19,4 km/h S 483,0 W/qm 1,3 ja 10:00
10:058,1 °C 3,9 °C 4,4 °C 51 % 1033,0 hPa 0,0 mm 0,3 mm 7,9 km/h 19,4 km/h SO 496,0 W/qm 1,3 ja 10:05
10:108,1 °C 3,9 °C 4,4 °C 51 % 1033,0 hPa 0,0 mm 0,3 mm 9,7 km/h 19,4 km/h SSO 504,0 W/qm 1,3 ja 10:10
10:158,3 °C 3,9 °C 4,4 °C 51 % 1033,1 hPa 0,0 mm - 7,9 km/h 19,4 km/h SSO 515,0 W/qm 1,3 ja 10:15
10:208,3 °C 3,9 °C 4,4 °C 49 % 1033,1 hPa 0,0 mm - 9,7 km/h 19,4 km/h SO 524,0 W/qm 1,4 ja 10:20
10:258,4 °C 3,9 °C 4,4 °C 50 % 1033,1 hPa 0,0 mm - 9,7 km/h 19,4 km/h SSO 531,0 W/qm 1,4 ja 10:25
10:308,7 °C 3,9 °C 4,4 °C 49 % 1033,0 hPa 0,0 mm - 9,7 km/h 24,1 km/h SSO 540,0 W/qm 1,5 ja 10:30
10:358,9 °C 3,9 °C 4,4 °C 49 % 1033,0 hPa 0,0 mm - 9,7 km/h 24,1 km/h SO 550,0 W/qm 1,5 ja 10:35
10:408,9 °C 3,9 °C 4,4 °C 49 % 1033,0 hPa 0,0 mm - 9,7 km/h 24,1 km/h SSO 557,0 W/qm 1,5 ja 10:40
10:459,4 °C 3,9 °C 4,4 °C 47 % 1032,9 hPa 0,0 mm - 7,9 km/h 20,9 km/h SSO 563,0 W/qm 1,6 ja 10:45
10:509,4 °C 3,9 °C 4,4 °C 47 % 1032,8 hPa 0,0 mm - 7,9 km/h 20,9 km/h S 570,0 W/qm 1,6 ja 10:50
10:559,7 °C 3,9 °C 4,4 °C 47 % 1032,8 hPa 0,0 mm - 7,9 km/h 20,9 km/h SW 575,0 W/qm 1,6 ja 10:55
11:009,9 °C 3,9 °C 4,4 °C 46 % 1032,8 hPa 0,0 mm - 6,5 km/h 19,4 km/h SSO 582,0 W/qm 1,7 ja 11:00
11:059,6 °C 3,9 °C 4,4 °C 46 % 1032,9 hPa 0,0 mm 0,6 mm 7,9 km/h 19,4 km/h SSO 589,0 W/qm 1,7 ja 11:05
11:109,8 °C 3,9 °C 4,4 °C 46 % 1032,7 hPa 0,0 mm 0,6 mm 7,9 km/h 19,4 km/h SSO 596,0 W/qm 1,7 ja 11:10
11:159,9 °C 3,9 °C 4,4 °C 45 % 1032,8 hPa 0,0 mm - 9,7 km/h 19,4 km/h SO 599,0 W/qm 1,8 ja 11:15
11:2010,0 °C 3,9 °C 4,4 °C 46 % 1032,8 hPa 0,0 mm - 9,7 km/h 25,9 km/h S 606,0 W/qm 1,8 ja 11:20
11:2510,1 °C 3,9 °C 4,4 °C 46 % 1032,7 hPa 0,0 mm - 7,9 km/h 27,4 km/h S 613,0 W/qm 1,8 ja 11:25
11:3010,4 °C 4,4 °C 4,4 °C 46 % 1032,6 hPa 0,0 mm - 7,9 km/h 27,4 km/h SSO 617,0 W/qm 1,8 ja 11:30
11:3510,4 °C 4,4 °C 4,4 °C 45 % 1032,7 hPa 0,0 mm - 7,9 km/h 22,7 km/h SSO 621,0 W/qm 1,9 ja 11:35
11:4010,5 °C 4,4 °C 4,4 °C 45 % 1032,6 hPa 0,0 mm - 7,9 km/h 22,7 km/h S 622,0 W/qm 1,9 ja 11:40
11:4511,2 °C 4,4 °C 4,4 °C 45 % 1032,5 hPa 0,0 mm - 6,5 km/h 22,7 km/h SSO 628,0 W/qm 1,9 ja 11:45
11:5011,4 °C 4,4 °C 4,4 °C 44 % 1032,5 hPa 0,0 mm - 6,5 km/h 20,9 km/h S 629,0 W/qm 1,9 ja 11:50
11:5511,1 °C 4,4 °C 4,4 °C 43 % 1032,5 hPa 0,0 mm - 6,5 km/h 16,2 km/h S 631,0 W/qm 1,9 ja 11:55
UhrzeitTemperaturBoden 10cmBoden 20cmFeuchteLuftdruckNiederschlagEvapotranspirationWindWindböenWindrichtungSolarstrahlungUV-IndexSonne?Uhrzeit
12:0011,4 °C 4,4 °C 4,4 °C 44 % 1032,5 hPa 0,0 mm - 6,5 km/h 16,2 km/h SSO 636,0 W/qm 2,0 ja 12:00
12:0511,5 °C 4,4 °C 4,4 °C 43 % 1032,4 hPa 0,0 mm 0,9 mm 6,5 km/h 16,2 km/h OSO 636,0 W/qm 2,0 ja 12:05
12:1011,6 °C 4,4 °C 4,4 °C 42 % 1032,4 hPa 0,0 mm 0,9 mm 4,7 km/h 17,6 km/h SSO 640,0 W/qm 2,0 ja 12:10
12:1511,7 °C 4,4 °C 4,4 °C 42 % 1032,4 hPa 0,0 mm - 6,5 km/h 17,6 km/h WNW 638,0 W/qm 2,0 ja 12:15
12:2011,9 °C 4,4 °C 4,4 °C 43 % 1032,3 hPa 0,0 mm - 6,5 km/h 17,6 km/h S 642,0 W/qm 2,0 ja 12:20
12:2511,8 °C 4,4 °C 4,4 °C 42 % 1032,4 hPa 0,0 mm - 6,5 km/h 17,6 km/h SO 640,0 W/qm 2,0 ja 12:25
12:3011,8 °C 4,4 °C 4,4 °C 42 % 1032,3 hPa 0,0 mm - 7,9 km/h 17,6 km/h SSW 643,0 W/qm 2,0 ja 12:30
12:3512,3 °C 4,4 °C 4,4 °C 42 % 1032,2 hPa 0,0 mm - 6,5 km/h 16,2 km/h ONO 640,0 W/qm 2,0 ja 12:35
12:4012,4 °C 4,4 °C 4,4 °C 40 % 1032,2 hPa 0,0 mm - 6,5 km/h 20,9 km/h S 642,0 W/qm 2,0 ja 12:40
12:4512,2 °C 4,4 °C 4,4 °C 41 % 1032,1 hPa 0,0 mm - 6,5 km/h 20,9 km/h SSO 640,0 W/qm 2,0 ja 12:45
12:5012,3 °C 5,0 °C 4,4 °C 39 % 1032,0 hPa 0,0 mm - 6,5 km/h 20,9 km/h SSO 640,0 W/qm 2,0 ja 12:50
12:5512,3 °C 5,0 °C 4,4 °C 40 % 1032,0 hPa 0,0 mm - 7,9 km/h 16,2 km/h SSO 636,0 W/qm 2,0 ja 12:55
13:0012,5 °C 5,0 °C 4,4 °C 38 % 1032,0 hPa 0,0 mm - 6,5 km/h 16,2 km/h SSW 633,0 W/qm 2,0 ja 13:00
13:0512,6 °C 5,0 °C 4,4 °C 39 % 1031,8 hPa 0,0 mm 1,3 mm 6,5 km/h 16,2 km/h S 631,0 W/qm 1,9 ja 13:05
13:1012,9 °C 5,0 °C 5,0 °C 37 % 1031,8 hPa 0,0 mm 1,3 mm 6,5 km/h 17,6 km/h S 629,0 W/qm 1,9 ja 13:10
13:1512,8 °C 5,0 °C 5,0 °C 38 % 1031,8 hPa 0,0 mm - 7,9 km/h 17,6 km/h SO 626,0 W/qm 1,9 ja 13:15
13:2012,9 °C 5,0 °C 5,0 °C 37 % 1031,8 hPa 0,0 mm - 9,7 km/h 20,9 km/h SSW 624,0 W/qm 1,9 ja 13:20
13:2512,9 °C 5,0 °C 5,0 °C 38 % 1031,7 hPa 0,0 mm - 7,9 km/h 20,9 km/h S 621,0 W/qm 1,9 ja 13:25
13:3012,8 °C 5,0 °C 5,0 °C 38 % 1031,7 hPa 0,0 mm - 7,9 km/h 20,9 km/h SO 615,0 W/qm 1,8 ja 13:30
13:3512,9 °C 5,0 °C 5,0 °C 37 % 1031,7 hPa 0,0 mm - 6,5 km/h 25,9 km/h SSO 610,0 W/qm 1,8 ja 13:35
13:4013,1 °C 5,0 °C 5,0 °C 38 % 1031,6 hPa 0,0 mm - 6,5 km/h 25,9 km/h SSO 605,0 W/qm 1,8 ja 13:40
13:4513,3 °C 5,0 °C 5,0 °C 36 % 1031,6 hPa 0,0 mm - 7,9 km/h 20,9 km/h SSO 601,0 W/qm 1,8 ja 13:45
13:5013,3 °C 5,6 °C 5,0 °C 38 % 1031,5 hPa 0,0 mm - 6,5 km/h 20,9 km/h S 596,0 W/qm 1,7 ja 13:50
13:5513,6 °C 5,6 °C 5,0 °C 36 % 1031,6 hPa 0,0 mm - 4,7 km/h 20,9 km/h SSO 591,0 W/qm 1,7 ja 13:55
UhrzeitTemperaturBoden 10cmBoden 20cmFeuchteLuftdruckNiederschlagEvapotranspirationWindWindböenWindrichtungSolarstrahlungUV-IndexSonne?Uhrzeit
14:0013,2 °C 5,6 °C 5,0 °C 36 % 1031,7 hPa 0,0 mm - 4,7 km/h 20,9 km/h S 584,0 W/qm 1,7 ja 14:00
14:0513,2 °C 5,6 °C 5,0 °C 36 % 1031,6 hPa 0,0 mm 1,7 mm 6,5 km/h 20,9 km/h SSO 577,0 W/qm 1,7 ja 14:05
14:1013,4 °C 5,6 °C 5,0 °C 36 % 1031,5 hPa 0,0 mm 1,7 mm 6,5 km/h 20,9 km/h SSO 571,0 W/qm 1,6 ja 14:10
14:1513,5 °C 5,6 °C 5,0 °C 36 % 1031,5 hPa 0,0 mm - 4,7 km/h 16,2 km/h ONO 564,0 W/qm 1,6 ja 14:15
14:2013,4 °C 5,6 °C 5,0 °C 37 % 1031,4 hPa 0,0 mm - 4,7 km/h 14,4 km/h SSO 559,0 W/qm 1,6 ja 14:20
14:2513,4 °C 5,6 °C 5,0 °C 37 % 1031,5 hPa 0,0 mm - 6,5 km/h 13,0 km/h SSO 550,0 W/qm 1,5 ja 14:25
14:3013,3 °C 5,6 °C 5,0 °C 35 % 1031,5 hPa 0,0 mm - 7,9 km/h 16,2 km/h SSO 543,0 W/qm 1,5 ja 14:30
14:3513,4 °C 5,6 °C 5,0 °C 36 % 1031,5 hPa 0,0 mm - 6,5 km/h 16,2 km/h S 534,0 W/qm 1,4 ja 14:35
14:4013,7 °C 5,6 °C 5,0 °C 37 % 1031,4 hPa 0,0 mm - 6,5 km/h 17,6 km/h SO 522,0 W/qm 1,4 ja 14:40
14:4513,9 °C 6,1 °C 5,0 °C 37 % 1031,3 hPa 0,0 mm - 6,5 km/h 17,6 km/h SSO 515,0 W/qm 1,4 ja 14:45
14:5013,6 °C 6,1 °C 5,0 °C 38 % 1031,4 hPa 0,0 mm - 4,7 km/h 16,2 km/h NO 499,0 W/qm 1,3 ja 14:50
14:5513,7 °C 6,1 °C 5,0 °C 36 % 1031,4 hPa 0,0 mm - 3,2 km/h 16,2 km/h SSO 489,0 W/qm 1,3 ja 14:55
15:0013,6 °C 6,1 °C 5,0 °C 35 % 1031,5 hPa 0,0 mm - 4,7 km/h 16,2 km/h SSW 471,0 W/qm 1,2 ja 15:00
15:0513,2 °C 6,1 °C 5,0 °C 37 % 1031,4 hPa 0,0 mm 2,0 mm 4,7 km/h 17,6 km/h O 452,0 W/qm 1,2 ja 15:05
15:1013,6 °C 6,1 °C 5,0 °C 36 % 1031,4 hPa 0,0 mm 2,0 mm 3,2 km/h 17,6 km/h S 462,0 W/qm 1,2 ja 15:10
15:1513,5 °C 6,1 °C 5,0 °C 36 % 1031,4 hPa 0,0 mm - 3,2 km/h 17,6 km/h ONO 448,0 W/qm 1,1 ja 15:15
15:2013,6 °C 6,1 °C 5,0 °C 37 % 1031,5 hPa 0,0 mm - 4,7 km/h 16,2 km/h SSO 439,0 W/qm 1,1 ja 15:20
15:2513,6 °C 6,1 °C 5,0 °C 37 % 1031,5 hPa 0,0 mm - 4,7 km/h 16,2 km/h OSO 429,0 W/qm 1,0 ja 15:25
15:3013,7 °C 6,1 °C 5,0 °C 35 % 1031,5 hPa 0,0 mm - 3,2 km/h 16,2 km/h S 418,0 W/qm 1,0 ja 15:30
15:3513,6 °C 6,1 °C 5,0 °C 36 % 1031,4 hPa 0,0 mm - 4,7 km/h 14,4 km/h S 408,0 W/qm 0,9 ja 15:35
15:4013,8 °C 6,1 °C 5,0 °C 35 % 1031,4 hPa 0,0 mm - 4,7 km/h 17,6 km/h SSO 394,0 W/qm 0,9 ja 15:40
15:4513,9 °C 6,1 °C 5,0 °C 35 % 1031,4 hPa 0,0 mm - 6,5 km/h 17,6 km/h SSW 376,0 W/qm 0,8 ja 15:45
15:5013,7 °C 6,1 °C 5,0 °C 34 % 1031,3 hPa 0,0 mm - 6,5 km/h 17,6 km/h SSO 366,0 W/qm 0,8 ja 15:50
15:5513,6 °C 6,1 °C 5,0 °C 34 % 1031,3 hPa 0,0 mm - 4,7 km/h 16,2 km/h SSO 353,0 W/qm 0,8 ja 15:55
UhrzeitTemperaturBoden 10cmBoden 20cmFeuchteLuftdruckNiederschlagEvapotranspirationWindWindböenWindrichtungSolarstrahlungUV-IndexSonne?Uhrzeit
16:0013,4 °C 6,1 °C 5,0 °C 35 % 1031,3 hPa 0,0 mm - 4,7 km/h 16,2 km/h SSO 343,0 W/qm 0,7 ja 16:00
16:0513,4 °C 6,1 °C 5,0 °C 34 % 1031,3 hPa 0,0 mm 2,2 mm 4,7 km/h 14,4 km/h SSO 330,0 W/qm 0,7 ja 16:05
16:1013,3 °C 6,1 °C 5,0 °C 34 % 1031,3 hPa 0,0 mm 2,2 mm 6,5 km/h 11,2 km/h SSO 316,0 W/qm 0,6 ja 16:10
16:1513,2 °C 6,1 °C 5,0 °C 34 % 1031,3 hPa 0,0 mm - 6,5 km/h 11,2 km/h SO 304,0 W/qm 0,6 ja 16:15
16:2013,2 °C 6,1 °C 5,0 °C 34 % 1031,3 hPa 0,0 mm - 6,5 km/h 22,7 km/h SSO 290,0 W/qm 0,5 ja 16:20
16:2513,1 °C 6,1 °C 5,0 °C 34 % 1031,3 hPa 0,0 mm - 6,5 km/h 22,7 km/h SSO 278,0 W/qm 0,5 ja 16:25
16:3013,2 °C 6,1 °C 5,6 °C 35 % 1031,1 hPa 0,0 mm - 6,5 km/h 14,4 km/h SSO 262,0 W/qm 0,5 ja 16:30
16:3513,2 °C 6,1 °C 5,6 °C 34 % 1031,2 hPa 0,0 mm - 4,7 km/h 14,4 km/h SSO 250,0 W/qm 0,0 ja 16:35
16:4013,2 °C 6,1 °C 5,6 °C 35 % 1031,2 hPa 0,0 mm - 4,7 km/h 14,4 km/h SSO 237,0 W/qm 0,0 nein 16:40
16:4513,1 °C 6,1 °C 5,6 °C 35 % 1031,3 hPa 0,0 mm - 3,2 km/h 17,6 km/h S 221,0 W/qm 0,0 nein 16:45
16:5013,2 °C 6,1 °C 5,6 °C 34 % 1031,2 hPa 0,0 mm - 3,2 km/h 17,6 km/h S 206,0 W/qm 0,0 nein 16:50
16:5513,1 °C 6,1 °C 5,6 °C 34 % 1031,2 hPa 0,0 mm - 4,7 km/h 17,6 km/h SSO 190,0 W/qm 0,0 nein 16:55
17:0012,9 °C 6,1 °C 5,6 °C 34 % 1031,2 hPa 0,0 mm - 6,5 km/h 13,0 km/h SW 176,0 W/qm 0,0 nein 17:00
17:0512,8 °C 6,1 °C 5,6 °C 35 % 1031,3 hPa 0,0 mm 2,4 mm 6,5 km/h 14,4 km/h SO 162,0 W/qm 0,0 nein 17:05
17:1012,8 °C 6,1 °C 5,6 °C 34 % 1031,2 hPa 0,0 mm 2,4 mm 6,5 km/h 14,4 km/h S 146,0 W/qm 0,0 nein 17:10
17:1512,7 °C 6,1 °C 5,6 °C 35 % 1031,3 hPa 0,0 mm - 6,5 km/h 13,0 km/h SSO 134,0 W/qm 0,0 nein 17:15
17:2012,6 °C 6,1 °C 5,6 °C 35 % 1031,4 hPa 0,0 mm - 6,5 km/h 13,0 km/h S 120,0 W/qm 0,0 nein 17:20
17:2512,3 °C 6,1 °C 5,6 °C 35 % 1031,5 hPa 0,0 mm - 6,5 km/h 13,0 km/h S 72,0 W/qm 0,0 nein 17:25
17:3012,2 °C 6,1 °C 5,6 °C 35 % 1031,4 hPa 0,0 mm - 6,5 km/h 13,0 km/h SW 62,0 W/qm 0,0 nein 17:30
17:3512,1 °C 6,1 °C 5,6 °C 37 % 1031,5 hPa 0,0 mm - 4,7 km/h 16,2 km/h S 56,0 W/qm 0,0 nein 17:35
17:4012,0 °C 6,1 °C 5,6 °C 37 % 1031,5 hPa 0,0 mm - 4,7 km/h 16,2 km/h S 54,0 W/qm 0,0 nein 17:40
17:4511,8 °C 6,1 °C 5,6 °C 37 % 1031,5 hPa 0,0 mm - 4,7 km/h 16,2 km/h S 49,0 W/qm 0,0 nein 17:45
17:5011,7 °C 6,1 °C 5,6 °C 38 % 1031,6 hPa 0,0 mm - 3,2 km/h 11,2 km/h SSO 46,0 W/qm 0,0 nein 17:50
17:5511,6 °C 6,1 °C 5,6 °C 38 % 1031,6 hPa 0,0 mm - 4,7 km/h 9,7 km/h SSO 40,0 W/qm 0,0 nein 17:55
UhrzeitTemperaturBoden 10cmBoden 20cmFeuchteLuftdruckNiederschlagEvapotranspirationWindWindböenWindrichtungSolarstrahlungUV-IndexSonne?Uhrzeit
18:0011,5 °C 6,1 °C 5,6 °C 38 % 1031,6 hPa 0,0 mm - 4,7 km/h 11,2 km/h SSO 37,0 W/qm 0,0 nein 18:00
18:0511,4 °C 6,1 °C 5,6 °C 38 % 1031,6 hPa 0,0 mm 2,5 mm 3,2 km/h 11,2 km/h SSW 32,0 W/qm 0,0 nein 18:05
18:1011,2 °C 6,1 °C 5,6 °C 39 % 1031,6 hPa 0,0 mm 2,5 mm 3,2 km/h 11,2 km/h SSW 26,0 W/qm 0,0 nein 18:10
18:1511,0 °C 6,1 °C 5,6 °C 40 % 1031,7 hPa 0,0 mm - 3,2 km/h 9,7 km/h SSO 21,0 W/qm 0,0 nein 18:15
18:2010,7 °C 6,1 °C 5,6 °C 40 % 1031,7 hPa 0,0 mm - 3,2 km/h 9,7 km/h S 16,0 W/qm 0,0 nein 18:20
18:2510,4 °C 6,1 °C 5,6 °C 41 % 1031,7 hPa 0,0 mm - 1,4 km/h 7,9 km/h S 14,0 W/qm 0,0 nein 18:25
18:3010,1 °C 6,1 °C 5,6 °C 42 % 1031,9 hPa 0,0 mm - 1,4 km/h 7,9 km/h S 11,0 W/qm 0,0 nein 18:30
18:3510,0 °C 6,1 °C 5,6 °C 43 % 1031,8 hPa 0,0 mm - 1,4 km/h 7,9 km/h WSW 9,0 W/qm 0,0 nein 18:35
18:409,7 °C 6,1 °C 5,6 °C 44 % 1031,9 hPa 0,0 mm - 1,4 km/h 6,5 km/h SO 5,0 W/qm 0,0 nein 18:40
18:458,9 °C 6,1 °C 5,6 °C 48 % 1032,0 hPa 0,0 mm - 0,0 km/h 6,5 km/h SSW 0,0 W/qm 0,0 nein 18:45
18:508,6 °C 6,1 °C 5,6 °C 50 % 1032,1 hPa 0,0 mm - 1,4 km/h 6,5 km/h SSW 0,0 W/qm 0,0 nein 18:50
18:558,1 °C 6,1 °C 5,6 °C 50 % 1032,3 hPa 0,0 mm - 0,0 km/h 4,7 km/h S 0,0 W/qm 0,0 nein 18:55
19:007,8 °C 6,1 °C 5,6 °C 53 % 1032,3 hPa 0,0 mm - 0,0 km/h 4,7 km/h S 0,0 W/qm 0,0 nein 19:00
19:057,1 °C 6,1 °C 5,6 °C 56 % 1032,4 hPa 0,0 mm 2,5 mm 0,0 km/h 4,7 km/h S 0,0 W/qm 0,0 nein 19:05
19:106,6 °C 6,1 °C 5,6 °C 57 % 1032,5 hPa 0,0 mm 2,5 mm 0,0 km/h 4,7 km/h S 0,0 W/qm 0,0 nein 19:10
19:156,5 °C 6,1 °C 5,6 °C 57 % 1032,5 hPa 0,0 mm - 0,0 km/h 3,2 km/h S 0,0 W/qm 0,0 nein 19:15
19:206,2 °C 6,1 °C 5,6 °C 58 % 1032,5 hPa 0,0 mm - 0,0 km/h 3,2 km/h S 0,0 W/qm 0,0 nein 19:20
19:256,1 °C 6,1 °C 5,6 °C 58 % 1032,7 hPa 0,0 mm - 0,0 km/h 1,4 km/h S 0,0 W/qm 0,0 nein 19:25
19:305,8 °C 6,1 °C 5,6 °C 60 % 1032,7 hPa 0,0 mm - 0,0 km/h 0,0 km/h S 0,0 W/qm 0,0 nein 19:30
19:355,6 °C 6,1 °C 5,6 °C 60 % 1032,7 hPa 0,0 mm - 0,0 km/h 0,0 km/h S 0,0 W/qm 0,0 nein 19:35
19:405,3 °C 6,1 °C 5,6 °C 61 % 1032,9 hPa 0,0 mm - 0,0 km/h 0,0 km/h S 0,0 W/qm 0,0 nein 19:40
19:455,3 °C 6,1 °C 5,6 °C 61 % 1032,9 hPa 0,0 mm - 0,0 km/h 0,0 km/h S 0,0 W/qm 0,0 nein 19:45
19:505,2 °C 6,1 °C 5,6 °C 62 % 1033,0 hPa 0,0 mm - 0,0 km/h 0,0 km/h S 0,0 W/qm 0,0 nein 19:50
19:555,0 °C 6,1 °C 5,6 °C 62 % 1033,0 hPa 0,0 mm - 0,0 km/h 0,0 km/h S 0,0 W/qm 0,0 nein 19:55
UhrzeitTemperaturBoden 10cmBoden 20cmFeuchteLuftdruckNiederschlagEvapotranspirationWindWindböenWindrichtungSolarstrahlungUV-IndexSonne?Uhrzeit
20:004,8 °C 6,1 °C 5,6 °C 64 % 1033,0 hPa 0,0 mm - 0,0 km/h 0,0 km/h S 0,0 W/qm 0,0 nein 20:00
20:054,7 °C 6,1 °C 5,6 °C 64 % 1033,1 hPa 0,0 mm 2,5 mm 0,0 km/h 0,0 km/h S 0,0 W/qm 0,0 nein 20:05
20:104,6 °C 6,1 °C 5,6 °C 65 % 1033,3 hPa 0,0 mm 2,5 mm 0,0 km/h 0,0 km/h S 0,0 W/qm 0,0 nein 20:10
20:154,4 °C 6,1 °C 5,6 °C 65 % 1033,3 hPa 0,0 mm - 0,0 km/h 0,0 km/h S 0,0 W/qm 0,0 nein 20:15
20:204,4 °C 6,1 °C 5,6 °C 65 % 1033,3 hPa 0,0 mm - 0,0 km/h 0,0 km/h S 0,0 W/qm 0,0 nein 20:20
20:255,5 °C 6,1 °C 5,6 °C 61 % 1033,3 hPa 0,0 mm - 1,4 km/h 3,2 km/h SW 0,0 W/qm 0,0 nein 20:25
20:306,3 °C 6,1 °C 5,6 °C 57 % 1033,1 hPa 0,0 mm - 3,2 km/h 6,5 km/h SSW 0,0 W/qm 0,0 nein 20:30
20:356,7 °C 6,1 °C 5,6 °C 56 % 1033,1 hPa 0,0 mm - 3,2 km/h 6,5 km/h SSW 0,0 W/qm 0,0 nein 20:35
20:406,9 °C 5,6 °C 5,6 °C 54 % 1033,1 hPa 0,0 mm - 4,7 km/h 7,9 km/h SSO 0,0 W/qm 0,0 nein 20:40
20:457,1 °C 5,6 °C 5,6 °C 53 % 1033,1 hPa 0,0 mm - 3,2 km/h 9,7 km/h SSO 0,0 W/qm 0,0 nein 20:45
20:507,2 °C 5,6 °C 5,6 °C 53 % 1033,0 hPa 0,0 mm - 4,7 km/h 9,7 km/h SSO 0,0 W/qm 0,0 nein 20:50
20:557,3 °C 5,6 °C 5,6 °C 52 % 1033,1 hPa 0,0 mm - 4,7 km/h 11,2 km/h SO 0,0 W/qm 0,0 nein 20:55
21:007,3 °C 5,6 °C 5,6 °C 52 % 1033,1 hPa 0,0 mm - 3,2 km/h 11,2 km/h SSW 0,0 W/qm 0,0 nein 21:00
21:057,1 °C 5,6 °C 5,6 °C 52 % 1033,1 hPa 0,0 mm 2,5 mm 3,2 km/h 11,2 km/h SSO 0,0 W/qm 0,0 nein 21:05
21:107,0 °C 5,6 °C 5,6 °C 53 % 1033,1 hPa 0,0 mm 2,5 mm 3,2 km/h 11,2 km/h SSW 0,0 W/qm 0,0 nein 21:10
21:156,9 °C 5,6 °C 5,6 °C 52 % 1033,2 hPa 0,0 mm - 1,4 km/h 7,9 km/h WSW 0,0 W/qm 0,0 nein 21:15
21:206,9 °C 5,6 °C 5,6 °C 52 % 1033,3 hPa 0,0 mm - 3,2 km/h 7,9 km/h S 0,0 W/qm 0,0 nein 21:20
21:256,9 °C 5,6 °C 5,6 °C 52 % 1033,4 hPa 0,0 mm - 3,2 km/h 7,9 km/h SSW 0,0 W/qm 0,0 nein 21:25
21:306,6 °C 5,6 °C 5,6 °C 55 % 1033,4 hPa 0,0 mm - 1,4 km/h 7,9 km/h SO 0,0 W/qm 0,0 nein 21:30
21:356,4 °C 5,6 °C 5,6 °C 54 % 1033,4 hPa 0,0 mm - 0,0 km/h 7,9 km/h S 0,0 W/qm 0,0 nein 21:35
21:406,1 °C 5,6 °C 5,6 °C 56 % 1033,5 hPa 0,0 mm - 0,0 km/h 7,9 km/h S 0,0 W/qm 0,0 nein 21:40
21:455,7 °C 5,6 °C 5,6 °C 58 % 1033,5 hPa 0,0 mm - 0,0 km/h 4,7 km/h W 0,0 W/qm 0,0 nein 21:45
21:505,2 °C 5,6 °C 5,6 °C 59 % 1033,6 hPa 0,0 mm - 0,0 km/h 4,7 km/h W 0,0 W/qm 0,0 nein 21:50
21:554,9 °C 5,6 °C 5,6 °C 61 % 1033,7 hPa 0,0 mm - 0,0 km/h 4,7 km/h W 0,0 W/qm 0,0 nein 21:55
UhrzeitTemperaturBoden 10cmBoden 20cmFeuchteLuftdruckNiederschlagEvapotranspirationWindWindböenWindrichtungSolarstrahlungUV-IndexSonne?Uhrzeit
22:004,6 °C 5,6 °C 5,6 °C 62 % 1033,8 hPa 0,0 mm - 0,0 km/h 4,7 km/h W 0,0 W/qm 0,0 nein 22:00
22:054,6 °C 5,6 °C 5,6 °C 62 % 1033,8 hPa 0,0 mm 2,5 mm 0,0 km/h 3,2 km/h SO 0,0 W/qm 0,0 nein 22:05
22:104,4 °C 5,6 °C 5,6 °C 63 % 1033,8 hPa 0,0 mm 2,5 mm 0,0 km/h 3,2 km/h SO 0,0 W/qm 0,0 nein 22:10
22:154,5 °C 5,6 °C 5,6 °C 62 % 1033,9 hPa 0,0 mm - 0,0 km/h 3,2 km/h SO 0,0 W/qm 0,0 nein 22:15
22:204,1 °C 5,6 °C 5,6 °C 64 % 1034,0 hPa 0,0 mm - 0,0 km/h 1,4 km/h SO 0,0 W/qm 0,0 nein 22:20
22:253,9 °C 5,6 °C 5,6 °C 65 % 1034,0 hPa 0,0 mm - 0,0 km/h 1,4 km/h SO 0,0 W/qm 0,0 nein 22:25
22:303,6 °C 5,6 °C 5,6 °C 67 % 1034,1 hPa 0,0 mm - 0,0 km/h 1,4 km/h SO 0,0 W/qm 0,0 nein 22:30
22:353,3 °C 5,6 °C 5,6 °C 67 % 1034,2 hPa 0,0 mm - 0,0 km/h 0,0 km/h SO 0,0 W/qm 0,0 nein 22:35
22:402,8 °C 5,6 °C 5,6 °C 69 % 1034,2 hPa 0,0 mm - 0,0 km/h 0,0 km/h SO 0,0 W/qm 0,0 nein 22:40
22:452,7 °C 5,6 °C 5,6 °C 70 % 1034,3 hPa 0,0 mm - 0,0 km/h 0,0 km/h SO 0,0 W/qm 0,0 nein 22:45
22:502,6 °C 5,6 °C 5,6 °C 70 % 1034,2 hPa 0,0 mm - 0,0 km/h 0,0 km/h SO 0,0 W/qm 0,0 nein 22:50
22:552,3 °C 5,6 °C 5,6 °C 71 % 1034,3 hPa 0,0 mm - 0,0 km/h 0,0 km/h SO 0,0 W/qm 0,0 nein 22:55
23:002,2 °C 5,6 °C 5,6 °C 71 % 1034,4 hPa 0,0 mm - 0,0 km/h 0,0 km/h SO 0,0 W/qm 0,0 nein 23:00
23:051,9 °C 5,6 °C 5,6 °C 72 % 1034,4 hPa 0,0 mm 2,5 mm 0,0 km/h 0,0 km/h SSO 0,0 W/qm 0,0 nein 23:05
23:101,7 °C 5,6 °C 5,6 °C 73 % 1034,4 hPa 0,0 mm 2,5 mm 0,0 km/h 3,2 km/h SSO 0,0 W/qm 0,0 nein 23:10
23:151,6 °C 5,6 °C 5,6 °C 74 % 1034,5 hPa 0,0 mm - 0,0 km/h 3,2 km/h SSO 0,0 W/qm 0,0 nein 23:15
23:201,6 °C 5,6 °C 5,6 °C 74 % 1034,5 hPa 0,0 mm - 0,0 km/h 3,2 km/h SSO 0,0 W/qm 0,0 nein 23:20
23:251,7 °C 5,6 °C 5,6 °C 74 % 1034,4 hPa 0,0 mm - 0,0 km/h 3,2 km/h SSO 0,0 W/qm 0,0 nein 23:25
23:301,6 °C 5,6 °C 5,6 °C 74 % 1034,5 hPa 0,0 mm - 0,0 km/h 1,4 km/h SSO 0,0 W/qm 0,0 nein 23:30
23:351,6 °C 5,6 °C 5,6 °C 73 % 1034,4 hPa 0,0 mm - 0,0 km/h 1,4 km/h SSO 0,0 W/qm 0,0 nein 23:35
23:401,5 °C 5,6 °C 5,6 °C 74 % 1034,4 hPa 0,0 mm - 0,0 km/h 3,2 km/h SSO 0,0 W/qm 0,0 nein 23:40
23:451,7 °C 5,0 °C 5,6 °C 73 % 1034,3 hPa 0,0 mm - 1,4 km/h 3,2 km/h SSW 0,0 W/qm 0,0 nein 23:45
23:501,7 °C 5,0 °C 5,6 °C 73 % 1034,4 hPa 0,0 mm - 0,0 km/h 4,7 km/h SSW 0,0 W/qm 0,0 nein 23:50
23:551,7 °C 5,0 °C 5,6 °C 72 % 1034,3 hPa 0,0 mm - 0,0 km/h 4,7 km/h SSW 0,0 W/qm 0,0 nein 23:55
Gesamt: 6,1 °C 4,9 °C 5,0 °C 58 % 1032,7 hPa 0,0 mm 53,2 mm 3,1 km/h 10,2 km/h 0 184,8 W/qm 0,5 ja

Insgesamt 288 Zeilen mal 13 Spalten = 3744 Werte werden angezeigt.

www.wetter-rosstal.de   •   www.wetter-franken.de   •   www.lightningmaps.org   •   Start   •   Kontakt / Datenschutz   •   PC-Kümmerer